LTAF/ADA METAR and TAF weather

Enter ICAO airport designator
Station Type Date Time Source
LTAF METAR 2019/02/18 03:50 UTC NOAA

LTAF 180350Z 04005KT CAVOK 06/05 Q1018 NOSIG


Station Type Date Time Source
LTAF Decoded METAR 2019/02/18 03:50 UTC NOAA

Adana / Sakirpasa, Turkey (LTAF) 36-59N 035-18E 20M
Feb 17, 2019 - 10:50 PM EST / 2019.02.18 0350 UTC
Wind: from the NE (040 degrees) at 6 MPH (5 KT):0
Visibility: greater than 7 mile(s):0
Temperature: 42 F (6 C)
Dew Point: 41 F (5 C)
Relative Humidity: 93%
Pressure (altimeter): 30.06 in. Hg (1018 hPa)
ob: LTAF 180350Z 04005KT CAVOK 06/05 Q1018 NOSIG
cycle: 4

Station Type Date Time Source
LTAF TAF 2019/02/17 18:01 UTC NOAA

TAF LTAF 171640Z 1718/1818 VRB02KT CAVOK
TEMPO 1718/1721 4000 BR PROB40
TEMPO 1804/1807 4000 BR


Example: see airport list